sensor_id;sensor_type;location;lat;lon;timestamp;P1;durP1;ratioP1;P2;durP2;ratioP2
43319;SDS011;28914;48.722;9.332;2023-11-18T00:02:07;2.50;;;2.30;;
43319;SDS011;28914;48.722;9.332;2023-11-18T00:07:26;2.43;;;2.23;;
43319;SDS011;28914;48.722;9.332;2023-11-18T00:12:45;4.47;;;2.33;;
43319;SDS011;28914;48.722;9.332;2023-11-18T00:18:05;2.60;;;2.30;;
43319;SDS011;28914;48.722;9.332;2023-11-18T00:23:25;2.73;;;2.20;;
43319;SDS011;28914;48.722;9.332;2023-11-18T00:28:45;2.57;;;2.37;;
43319;SDS011;28914;48.722;9.332;2023-11-18T00:34:06;2.70;;;2.50;;
43319;SDS011;28914;48.722;9.332;2023-11-18T00:39:26;3.37;;;3.07;;
43319;SDS011;28914;48.722;9.332;2023-11-18T00:44:45;2.50;;;2.30;;
43319;SDS011;28914;48.722;9.332;2023-11-18T00:50:05;3.13;;;2.93;;
43319;SDS011;28914;48.722;9.332;2023-11-18T00:55:26;3.30;;;2.50;;
43319;SDS011;28914;48.722;9.332;2023-11-18T01:00:45;2.50;;;2.30;;
43319;SDS011;28914;48.722;9.332;2023-11-18T01:06:05;3.30;;;3.00;;
43319;SDS011;28914;48.722;9.332;2023-11-18T01:11:25;2.90;;;2.60;;
43319;SDS011;28914;48.722;9.332;2023-11-18T01:16:44;2.70;;;2.17;;
43319;SDS011;28914;48.722;9.332;2023-11-18T01:22:03;3.17;;;2.87;;
43319;SDS011;28914;48.722;9.332;2023-11-18T01:27:27;2.60;;;2.40;;
43319;SDS011;28914;48.722;9.332;2023-11-18T01:32:46;2.60;;;2.20;;
43319;SDS011;28914;48.722;9.332;2023-11-18T01:38:05;2.53;;;2.33;;
43319;SDS011;28914;48.722;9.332;2023-11-18T01:43:24;3.43;;;3.03;;
43319;SDS011;28914;48.722;9.332;2023-11-18T01:48:44;3.33;;;3.03;;
43319;SDS011;28914;48.722;9.332;2023-11-18T01:54:03;3.40;;;3.10;;
43319;SDS011;28914;48.722;9.332;2023-11-18T01:59:24;2.80;;;2.60;;
43319;SDS011;28914;48.722;9.332;2023-11-18T02:04:44;3.07;;;2.83;;
43319;SDS011;28914;48.722;9.332;2023-11-18T02:10:04;2.70;;;2.50;;
43319;SDS011;28914;48.722;9.332;2023-11-18T02:15:27;2.43;;;2.23;;
43319;SDS011;28914;48.722;9.332;2023-11-18T02:20:50;2.67;;;2.20;;
43319;SDS011;28914;48.722;9.332;2023-11-18T02:26:10;2.83;;;2.63;;
43319;SDS011;28914;48.722;9.332;2023-11-18T02:31:32;3.33;;;2.53;;
43319;SDS011;28914;48.722;9.332;2023-11-18T02:36:56;2.90;;;2.57;;
43319;SDS011;28914;48.722;9.332;2023-11-18T02:42:19;2.27;;;2.07;;
43319;SDS011;28914;48.722;9.332;2023-11-18T02:47:43;3.23;;;2.23;;
43319;SDS011;28914;48.722;9.332;2023-11-18T02:53:06;2.60;;;2.40;;
43319;SDS011;28914;48.722;9.332;2023-11-18T02:58:30;2.70;;;2.50;;
43319;SDS011;28914;48.722;9.332;2023-11-18T03:03:49;2.70;;;2.50;;
43319;SDS011;28914;48.722;9.332;2023-11-18T03:09:08;3.23;;;2.53;;
43319;SDS011;28914;48.722;9.332;2023-11-18T03:14:29;2.93;;;2.60;;
43319;SDS011;28914;48.722;9.332;2023-11-18T03:19:48;3.70;;;3.33;;
43319;SDS011;28914;48.722;9.332;2023-11-18T03:25:09;3.23;;;3.00;;
43319;SDS011;28914;48.722;9.332;2023-11-18T03:30:28;3.10;;;2.80;;
43319;SDS011;28914;48.722;9.332;2023-11-18T03:35:47;2.50;;;2.10;;
43319;SDS011;28914;48.722;9.332;2023-11-18T03:41:07;2.60;;;2.40;;
43319;SDS011;28914;48.722;9.332;2023-11-18T03:46:27;3.53;;;3.00;;
43319;SDS011;28914;48.722;9.332;2023-11-18T03:51:52;2.40;;;2.20;;
43319;SDS011;28914;48.722;9.332;2023-11-18T03:57:12;2.87;;;2.63;;
43319;SDS011;28914;48.722;9.332;2023-11-18T04:02:31;2.40;;;2.07;;
43319;SDS011;28914;48.722;9.332;2023-11-18T04:07:51;2.80;;;2.50;;
43319;SDS011;28914;48.722;9.332;2023-11-18T04:13:10;2.20;;;1.80;;
43319;SDS011;28914;48.722;9.332;2023-11-18T04:18:29;4.57;;;2.47;;
43319;SDS011;28914;48.722;9.332;2023-11-18T04:23:49;2.40;;;2.20;;
43319;SDS011;28914;48.722;9.332;2023-11-18T04:29:08;1.90;;;1.80;;
43319;SDS011;28914;48.722;9.332;2023-11-18T04:34:27;3.30;;;2.33;;
43319;SDS011;28914;48.722;9.332;2023-11-18T04:39:47;2.30;;;2.10;;
43319;SDS011;28914;48.722;9.332;2023-11-18T04:45:06;3.00;;;2.50;;
43319;SDS011;28914;48.722;9.332;2023-11-18T04:50:27;2.70;;;2.50;;
43319;SDS011;28914;48.722;9.332;2023-11-18T04:55:48;2.90;;;2.70;;
43319;SDS011;28914;48.722;9.332;2023-11-18T05:01:07;2.90;;;2.60;;
43319;SDS011;28914;48.722;9.332;2023-11-18T05:06:27;2.50;;;2.30;;
43319;SDS011;28914;48.722;9.332;2023-11-18T05:11:47;2.07;;;1.87;;
43319;SDS011;28914;48.722;9.332;2023-11-18T05:17:06;2.50;;;2.10;;
43319;SDS011;28914;48.722;9.332;2023-11-18T05:22:26;2.83;;;2.60;;
43319;SDS011;28914;48.722;9.332;2023-11-18T05:27:45;2.50;;;2.30;;
43319;SDS011;28914;48.722;9.332;2023-11-18T05:33:04;2.77;;;2.57;;
43319;SDS011;28914;48.722;9.332;2023-11-18T05:38:24;2.90;;;2.70;;
43319;SDS011;28914;48.722;9.332;2023-11-18T05:43:46;4.83;;;2.70;;
43319;SDS011;28914;48.722;9.332;2023-11-18T05:49:10;3.20;;;2.60;;
43319;SDS011;28914;48.722;9.332;2023-11-18T05:54:32;4.13;;;3.73;;
43319;SDS011;28914;48.722;9.332;2023-11-18T05:59:51;6.13;;;4.53;;
43319;SDS011;28914;48.722;9.332;2023-11-18T06:05:10;3.33;;;2.93;;
43319;SDS011;28914;48.722;9.332;2023-11-18T06:10:31;2.87;;;2.67;;
43319;SDS011;28914;48.722;9.332;2023-11-18T06:15:50;2.20;;;2.00;;
43319;SDS011;28914;48.722;9.332;2023-11-18T06:21:10;2.17;;;1.97;;
43319;SDS011;28914;48.722;9.332;2023-11-18T06:26:30;2.30;;;2.10;;
43319;SDS011;28914;48.722;9.332;2023-11-18T06:31:50;3.03;;;2.60;;
43319;SDS011;28914;48.722;9.332;2023-11-18T06:37:09;3.33;;;3.03;;
43319;SDS011;28914;48.722;9.332;2023-11-18T06:42:28;3.50;;;3.30;;
43319;SDS011;28914;48.722;9.332;2023-11-18T06:47:48;3.07;;;2.77;;
43319;SDS011;28914;48.722;9.332;2023-11-18T06:53:07;3.17;;;2.87;;
43319;SDS011;28914;48.722;9.332;2023-11-18T06:58:27;3.47;;;3.17;;
43319;SDS011;28914;48.722;9.332;2023-11-18T07:03:46;3.80;;;3.50;;
43319;SDS011;28914;48.722;9.332;2023-11-18T07:09:13;8.60;;;7.80;;
43319;SDS011;28914;48.722;9.332;2023-11-18T07:14:35;5.80;;;5.30;;
43319;SDS011;28914;48.722;9.332;2023-11-18T07:19:55;4.50;;;4.10;;
43319;SDS011;28914;48.722;9.332;2023-11-18T07:25:14;6.90;;;6.30;;
43319;SDS011;28914;48.722;9.332;2023-11-18T07:30:33;6.50;;;5.90;;
43319;SDS011;28914;48.722;9.332;2023-11-18T07:35:54;6.53;;;5.90;;
43319;SDS011;28914;48.722;9.332;2023-11-18T07:41:13;4.57;;;4.23;;
43319;SDS011;28914;48.722;9.332;2023-11-18T07:46:42;4.77;;;4.37;;
43319;SDS011;28914;48.722;9.332;2023-11-18T07:52:02;4.50;;;4.20;;
43319;SDS011;28914;48.722;9.332;2023-11-18T07:57:21;5.13;;;4.60;;
43319;SDS011;28914;48.722;9.332;2023-11-18T08:02:42;4.63;;;4.13;;
43319;SDS011;28914;48.722;9.332;2023-11-18T08:08:03;4.83;;;4.43;;
43319;SDS011;28914;48.722;9.332;2023-11-18T08:13:22;4.50;;;3.93;;
43319;SDS011;28914;48.722;9.332;2023-11-18T08:18:42;4.03;;;3.67;;
43319;SDS011;28914;48.722;9.332;2023-11-18T08:24:01;4.60;;;4.00;;
43319;SDS011;28914;48.722;9.332;2023-11-18T08:29:23;3.13;;;2.93;;
43319;SDS011;28914;48.722;9.332;2023-11-18T08:34:46;3.80;;;3.50;;
43319;SDS011;28914;48.722;9.332;2023-11-18T08:40:09;3.40;;;3.10;;
43319;SDS011;28914;48.722;9.332;2023-11-18T08:45:42;4.23;;;3.80;;
43319;SDS011;28914;48.722;9.332;2023-11-18T08:51:01;4.20;;;3.90;;
43319;SDS011;28914;48.722;9.332;2023-11-18T08:56:20;5.20;;;4.77;;
43319;SDS011;28914;48.722;9.332;2023-11-18T09:01:43;8.27;;;6.07;;
43319;SDS011;28914;48.722;9.332;2023-11-18T09:07:05;6.07;;;4.40;;
43319;SDS011;28914;48.722;9.332;2023-11-18T09:12:25;3.90;;;3.50;;
43319;SDS011;28914;48.722;9.332;2023-11-18T09:17:46;3.60;;;3.30;;
43319;SDS011;28914;48.722;9.332;2023-11-18T09:23:06;3.87;;;3.57;;
43319;SDS011;28914;48.722;9.332;2023-11-18T09:28:26;5.37;;;3.83;;
43319;SDS011;28914;48.722;9.332;2023-11-18T09:33:49;4.37;;;3.97;;
43319;SDS011;28914;48.722;9.332;2023-11-18T09:39:11;5.13;;;3.50;;
43319;SDS011;28914;48.722;9.332;2023-11-18T09:44:47;3.30;;;3.00;;
43319;SDS011;28914;48.722;9.332;2023-11-18T09:50:08;3.80;;;2.57;;
43319;SDS011;28914;48.722;9.332;2023-11-18T09:55:38;3.77;;;3.47;;
43319;SDS011;28914;48.722;9.332;2023-11-18T10:01:05;4.67;;;3.83;;
43319;SDS011;28914;48.722;9.332;2023-11-18T10:06:25;4.07;;;3.50;;
43319;SDS011;28914;48.722;9.332;2023-11-18T10:11:47;3.17;;;2.70;;
43319;SDS011;28914;48.722;9.332;2023-11-18T10:17:06;5.03;;;4.53;;
43319;SDS011;28914;48.722;9.332;2023-11-18T10:22:26;4.20;;;3.13;;
43319;SDS011;28914;48.722;9.332;2023-11-18T10:27:46;4.07;;;2.40;;
43319;SDS011;28914;48.722;9.332;2023-11-18T10:33:05;3.63;;;2.80;;
43319;SDS011;28914;48.722;9.332;2023-11-18T10:38:25;2.80;;;2.50;;
43319;SDS011;28914;48.722;9.332;2023-11-18T10:43:45;2.47;;;2.10;;
43319;SDS011;28914;48.722;9.332;2023-11-18T10:49:04;2.50;;;2.30;;
43319;SDS011;28914;48.722;9.332;2023-11-18T10:54:28;2.50;;;2.30;;
43319;SDS011;28914;48.722;9.332;2023-11-18T11:00:00;2.90;;;2.37;;
43319;SDS011;28914;48.722;9.332;2023-11-18T11:05:28;2.67;;;1.80;;
43319;SDS011;28914;48.722;9.332;2023-11-18T11:10:51;2.60;;;2.00;;
43319;SDS011;28914;48.722;9.332;2023-11-18T11:16:12;2.33;;;2.13;;
43319;SDS011;28914;48.722;9.332;2023-11-18T11:21:39;1.70;;;1.60;;
43319;SDS011;28914;48.722;9.332;2023-11-18T11:32:51;3.03;;;2.20;;
43319;SDS011;28914;48.722;9.332;2023-11-18T11:38:12;2.83;;;1.93;;
43319;SDS011;28914;48.722;9.332;2023-11-18T11:43:32;3.40;;;1.97;;
43319;SDS011;28914;48.722;9.332;2023-11-18T11:48:56;1.93;;;1.70;;
43319;SDS011;28914;48.722;9.332;2023-11-18T11:54:17;2.03;;;1.60;;
43319;SDS011;28914;48.722;9.332;2023-11-18T12:05:15;2.70;;;2.30;;
43319;SDS011;28914;48.722;9.332;2023-11-18T12:10:37;3.63;;;2.00;;
43319;SDS011;28914;48.722;9.332;2023-11-18T12:15:56;2.97;;;2.30;;
43319;SDS011;28914;48.722;9.332;2023-11-18T12:21:35;4.40;;;3.40;;
43319;SDS011;28914;48.722;9.332;2023-11-18T12:27:13;4.20;;;3.67;;
43319;SDS011;28914;48.722;9.332;2023-11-18T12:49:42;2.37;;;2.17;;
43319;SDS011;28914;48.722;9.332;2023-11-18T12:55:02;2.63;;;2.40;;
43319;SDS011;28914;48.722;9.332;2023-11-18T13:00:26;3.60;;;2.63;;
43319;SDS011;28914;48.722;9.332;2023-11-18T13:05:46;3.90;;;3.23;;
43319;SDS011;28914;48.722;9.332;2023-11-18T13:11:05;4.40;;;4.00;;
43319;SDS011;28914;48.722;9.332;2023-11-18T13:16:24;4.20;;;3.30;;
43319;SDS011;28914;48.722;9.332;2023-11-18T13:21:44;6.10;;;4.27;;
43319;SDS011;28914;48.722;9.332;2023-11-18T13:27:03;5.93;;;4.87;;
43319;SDS011;28914;48.722;9.332;2023-11-18T13:32:25;10.20;;;7.70;;
43319;SDS011;28914;48.722;9.332;2023-11-18T13:37:47;8.90;;;7.40;;
43319;SDS011;28914;48.722;9.332;2023-11-18T13:43:08;11.67;;;10.63;;
43319;SDS011;28914;48.722;9.332;2023-11-18T13:48:27;10.00;;;9.10;;
43319;SDS011;28914;48.722;9.332;2023-11-18T13:53:47;6.07;;;5.40;;
43319;SDS011;28914;48.722;9.332;2023-11-18T13:59:06;7.40;;;6.70;;
43319;SDS011;28914;48.722;9.332;2023-11-18T14:04:30;5.57;;;5.07;;
43319;SDS011;28914;48.722;9.332;2023-11-18T14:09:51;4.77;;;4.30;;
43319;SDS011;28914;48.722;9.332;2023-11-18T14:15:14;4.00;;;3.60;;
43319;SDS011;28914;48.722;9.332;2023-11-18T14:20:34;4.30;;;3.90;;
43319;SDS011;28914;48.722;9.332;2023-11-18T14:25:54;5.03;;;3.80;;
43319;SDS011;28914;48.722;9.332;2023-11-18T14:31:13;4.87;;;4.47;;
43319;SDS011;28914;48.722;9.332;2023-11-18T14:36:32;14.17;;;8.20;;
43319;SDS011;28914;48.722;9.332;2023-11-18T14:41:52;11.33;;;7.23;;
43319;SDS011;28914;48.722;9.332;2023-11-18T14:47:11;7.40;;;5.83;;
43319;SDS011;28914;48.722;9.332;2023-11-18T14:52:31;13.03;;;9.10;;
43319;SDS011;28914;48.722;9.332;2023-11-18T14:57:50;12.53;;;7.57;;
43319;SDS011;28914;48.722;9.332;2023-11-18T15:03:10;6.53;;;5.10;;
43319;SDS011;28914;48.722;9.332;2023-11-18T15:08:29;4.37;;;2.90;;
43319;SDS011;28914;48.722;9.332;2023-11-18T15:13:50;3.13;;;2.80;;
43319;SDS011;28914;48.722;9.332;2023-11-18T15:19:11;3.43;;;2.40;;
43319;SDS011;28914;48.722;9.332;2023-11-18T15:24:30;5.40;;;3.47;;
43319;SDS011;28914;48.722;9.332;2023-11-18T15:29:51;3.97;;;3.53;;
43319;SDS011;28914;48.722;9.332;2023-11-18T15:35:10;4.37;;;3.97;;
43319;SDS011;28914;48.722;9.332;2023-11-18T15:40:31;6.30;;;5.47;;
43319;SDS011;28914;48.722;9.332;2023-11-18T15:45:50;5.27;;;4.77;;
43319;SDS011;28914;48.722;9.332;2023-11-18T15:51:10;4.70;;;3.67;;
43319;SDS011;28914;48.722;9.332;2023-11-18T15:56:31;3.97;;;3.53;;
43319;SDS011;28914;48.722;9.332;2023-11-18T16:01:52;6.63;;;4.10;;
43319;SDS011;28914;48.722;9.332;2023-11-18T16:07:11;2.43;;;2.23;;
43319;SDS011;28914;48.722;9.332;2023-11-18T16:12:30;3.33;;;3.03;;
43319;SDS011;28914;48.722;9.332;2023-11-18T16:17:50;3.53;;;3.10;;
43319;SDS011;28914;48.722;9.332;2023-11-18T16:23:16;4.50;;;2.83;;
43319;SDS011;28914;48.722;9.332;2023-11-18T16:28:35;6.30;;;5.77;;
43319;SDS011;28914;48.722;9.332;2023-11-18T16:33:55;3.30;;;2.93;;
43319;SDS011;28914;48.722;9.332;2023-11-18T16:39:14;3.60;;;2.20;;
43319;SDS011;28914;48.722;9.332;2023-11-18T16:44:33;2.27;;;1.87;;
43319;SDS011;28914;48.722;9.332;2023-11-18T16:49:53;2.00;;;1.63;;
43319;SDS011;28914;48.722;9.332;2023-11-18T16:55:12;2.37;;;1.97;;
43319;SDS011;28914;48.722;9.332;2023-11-18T17:00:31;3.60;;;3.20;;
43319;SDS011;28914;48.722;9.332;2023-11-18T17:05:51;10.13;;;8.20;;
43319;SDS011;28914;48.722;9.332;2023-11-18T17:11:10;9.67;;;8.67;;
43319;SDS011;28914;48.722;9.332;2023-11-18T17:16:30;5.87;;;5.27;;
43319;SDS011;28914;48.722;9.332;2023-11-18T17:21:50;5.03;;;4.63;;
43319;SDS011;28914;48.722;9.332;2023-11-18T17:27:10;4.30;;;3.10;;
43319;SDS011;28914;48.722;9.332;2023-11-18T17:32:30;2.60;;;2.30;;
43319;SDS011;28914;48.722;9.332;2023-11-18T17:37:50;2.30;;;2.10;;
43319;SDS011;28914;48.722;9.332;2023-11-18T17:43:09;3.07;;;2.77;;
43319;SDS011;28914;48.722;9.332;2023-11-18T17:48:29;7.97;;;6.47;;
43319;SDS011;28914;48.722;9.332;2023-11-18T17:53:48;6.67;;;6.00;;
43319;SDS011;28914;48.722;9.332;2023-11-18T17:59:08;8.50;;;7.70;;
43319;SDS011;28914;48.722;9.332;2023-11-18T18:04:27;6.97;;;6.33;;
43319;SDS011;28914;48.722;9.332;2023-11-18T18:09:46;6.73;;;6.03;;
43319;SDS011;28914;48.722;9.332;2023-11-18T18:15:06;4.70;;;3.90;;
43319;SDS011;28914;48.722;9.332;2023-11-18T18:20:27;3.83;;;3.53;;
43319;SDS011;28914;48.722;9.332;2023-11-18T18:25:46;3.73;;;3.43;;
43319;SDS011;28914;48.722;9.332;2023-11-18T18:31:05;5.73;;;4.93;;
43319;SDS011;28914;48.722;9.332;2023-11-18T18:36:25;17.17;;;13.67;;
43319;SDS011;28914;48.722;9.332;2023-11-18T18:41:44;8.00;;;7.30;;
43319;SDS011;28914;48.722;9.332;2023-11-18T18:47:04;7.30;;;6.10;;
43319;SDS011;28914;48.722;9.332;2023-11-18T18:52:24;5.40;;;3.90;;
43319;SDS011;28914;48.722;9.332;2023-11-18T18:57:44;4.70;;;3.60;;
43319;SDS011;28914;48.722;9.332;2023-11-18T19:03:03;7.13;;;6.53;;
43319;SDS011;28914;48.722;9.332;2023-11-18T19:08:23;6.40;;;5.77;;
43319;SDS011;28914;48.722;9.332;2023-11-18T19:13:42;11.07;;;9.80;;
43319;SDS011;28914;48.722;9.332;2023-11-18T19:19:01;19.10;;;17.13;;
43319;SDS011;28914;48.722;9.332;2023-11-18T19:24:21;10.97;;;9.87;;
43319;SDS011;28914;48.722;9.332;2023-11-18T19:29:39;9.77;;;8.90;;
43319;SDS011;28914;48.722;9.332;2023-11-18T19:34:59;7.63;;;6.90;;
43319;SDS011;28914;48.722;9.332;2023-11-18T19:40:19;4.47;;;4.07;;
43319;SDS011;28914;48.722;9.332;2023-11-18T19:45:40;5.80;;;5.30;;
43319;SDS011;28914;48.722;9.332;2023-11-18T19:50:59;4.80;;;4.40;;
43319;SDS011;28914;48.722;9.332;2023-11-18T19:56:20;4.40;;;4.00;;
43319;SDS011;28914;48.722;9.332;2023-11-18T20:01:41;5.03;;;4.40;;
43319;SDS011;28914;48.722;9.332;2023-11-18T20:07:02;3.80;;;3.10;;
43319;SDS011;28914;48.722;9.332;2023-11-18T20:12:21;3.90;;;2.80;;
43319;SDS011;28914;48.722;9.332;2023-11-18T20:17:40;5.60;;;3.63;;
43319;SDS011;28914;48.722;9.332;2023-11-18T20:23:04;3.20;;;2.90;;
43319;SDS011;28914;48.722;9.332;2023-11-18T20:28:23;3.53;;;3.23;;
43319;SDS011;28914;48.722;9.332;2023-11-18T20:33:42;4.07;;;3.77;;
43319;SDS011;28914;48.722;9.332;2023-11-18T20:39:02;3.60;;;3.30;;
43319;SDS011;28914;48.722;9.332;2023-11-18T20:44:22;8.77;;;7.43;;
43319;SDS011;28914;48.722;9.332;2023-11-18T20:49:42;18.67;;;16.80;;
43319;SDS011;28914;48.722;9.332;2023-11-18T20:55:01;10.07;;;9.17;;
43319;SDS011;28914;48.722;9.332;2023-11-18T21:00:20;7.30;;;6.60;;
43319;SDS011;28914;48.722;9.332;2023-11-18T21:05:39;5.33;;;4.57;;
43319;SDS011;28914;48.722;9.332;2023-11-18T21:10:59;5.43;;;4.90;;
43319;SDS011;28914;48.722;9.332;2023-11-18T21:16:20;4.70;;;4.17;;
43319;SDS011;28914;48.722;9.332;2023-11-18T21:21:39;3.83;;;3.50;;
43319;SDS011;28914;48.722;9.332;2023-11-18T21:26:59;4.97;;;4.57;;
43319;SDS011;28914;48.722;9.332;2023-11-18T21:32:18;4.50;;;4.10;;
43319;SDS011;28914;48.722;9.332;2023-11-18T21:37:37;6.77;;;4.20;;
43319;SDS011;28914;48.722;9.332;2023-11-18T21:42:56;6.10;;;5.60;;
43319;SDS011;28914;48.722;9.332;2023-11-18T21:48:16;5.77;;;5.10;;
43319;SDS011;28914;48.722;9.332;2023-11-18T21:53:35;4.63;;;4.20;;
43319;SDS011;28914;48.722;9.332;2023-11-18T21:58:58;5.43;;;4.90;;
43319;SDS011;28914;48.722;9.332;2023-11-18T22:04:17;4.80;;;4.33;;
43319;SDS011;28914;48.722;9.332;2023-11-18T22:09:36;5.30;;;4.70;;
43319;SDS011;28914;48.722;9.332;2023-11-18T22:14:56;4.43;;;4.03;;
43319;SDS011;28914;48.722;9.332;2023-11-18T22:20:15;5.47;;;4.53;;
43319;SDS011;28914;48.722;9.332;2023-11-18T22:25:35;4.53;;;4.13;;
43319;SDS011;28914;48.722;9.332;2023-11-18T22:30:54;6.00;;;5.50;;
43319;SDS011;28914;48.722;9.332;2023-11-18T22:36:14;4.73;;;4.33;;
43319;SDS011;28914;48.722;9.332;2023-11-18T22:41:33;4.10;;;3.80;;
43319;SDS011;28914;48.722;9.332;2023-11-18T22:46:53;5.13;;;4.73;;
43319;SDS011;28914;48.722;9.332;2023-11-18T22:52:12;4.77;;;4.37;;
43319;SDS011;28914;48.722;9.332;2023-11-18T22:57:32;5.30;;;4.90;;
43319;SDS011;28914;48.722;9.332;2023-11-18T23:02:52;5.47;;;5.07;;
43319;SDS011;28914;48.722;9.332;2023-11-18T23:08:11;6.10;;;5.03;;
43319;SDS011;28914;48.722;9.332;2023-11-18T23:13:35;5.70;;;5.20;;
43319;SDS011;28914;48.722;9.332;2023-11-18T23:18:54;5.50;;;4.90;;
43319;SDS011;28914;48.722;9.332;2023-11-18T23:24:15;6.77;;;6.13;;
43319;SDS011;28914;48.722;9.332;2023-11-18T23:29:34;11.27;;;10.03;;
43319;SDS011;28914;48.722;9.332;2023-11-18T23:34:53;9.13;;;8.23;;
43319;SDS011;28914;48.722;9.332;2023-11-18T23:40:13;6.63;;;5.93;;
43319;SDS011;28914;48.722;9.332;2023-11-18T23:45:32;5.10;;;4.60;;
43319;SDS011;28914;48.722;9.332;2023-11-18T23:50:52;5.20;;;4.70;;
43319;SDS011;28914;48.722;9.332;2023-11-18T23:56:11;4.17;;;3.77;;
